Huffton, South Dakota
Current Conditions -  °F | °C
As of 10:28 AM on Saturday 20 Dec 2014 (Local Time) from KABR Reporting Station
Moderate Fog Moderate Fog  
Wind Chill: 14°   Ceiling: 200
Heat Index: 26°   Visibility: 0.5mi
Dew Point: 24°   Wind: 14mph
Humidity: 92%   Direction: 180°S
Pressure: 30.02"   Gusts: NA
Location:  45.6648°N, 98.0615°W
Report Text: KABR 201628Z AUTO 18012KT 1/2SM FZFG VV002 M03/M04 A3002 RMK AO2 I1001 T10331044
Loading
Personal Weather Stations






























Interactive Weather Map New forecast layout! Learn more

10-Day Weather Forecast

Advertisements
Track Severe Weather on mobile